Callie M. Etheredge — WDI5093 — position and weather

sailwx.info

Track history (hours):
 
Tides and Currents Weather Stations Pressure Air Temp Water Temp Dewpoint Dewpoint Depression Visibility Wind Speed Wind Dir Waves Ship Positions

Callie M. Etheredge

Owner: Genesis Marine, LLC, Houston, TX. More information available from US FCC via Universal Licensing System.

Last reported at 2017-Oct-15 07:31 UTC. Time now 2017-Oct-19 23:35 UTC.
Position N 32°46' W 091°09'.

Length 24 m; draft 3.3 m.

Type: Ship (hazmat cat B). MMSI: 367705090.

Date/timePositionNaut miles runAvg speedWind from/ knotsBaromVisibWave heightAir tempDewpointWater temp
2017-Oct-15 07:31N 32°46' W 091°09'0 6.1
2017-Oct-15 07:30N 32°46' W 091°09'4 4.9
2017-Oct-15 06:37N 32°44' W 091°05'0 1.0
2017-Oct-15 06:29N 32°44' W 091°05'0 0.0
2017-Oct-15 06:00N 32°44' W 091°05'0 0.1
2017-Oct-15 05:27N 32°44' W 091°05'4 3.8
2017-Oct-15 04:21N 32°40' W 091°07'2 5.2
2017-Oct-15 03:59N 32°39' W 091°09'1 2.4
2017-Oct-15 03:31N 32°38' W 091°09'2 3.7
2017-Oct-15 03:00N 32°37' W 091°09'3 5.9
2017-Oct-15 02:30N 32°34' W 091°07'3 5.3
2017-Oct-15 01:59N 32°32' W 091°06'3 5.8
2017-Oct-15 01:30N 32°29' W 091°07'3 6.9
2017-Oct-15 01:00N 32°27' W 091°04'3 6.7
2017-Oct-15 00:30N 32°25' W 091°00'3 5.3
2017-Oct-15 00:00N 32°23' W 091°00'3 5.5
2017-Oct-14 23:30N 32°21' W 090°58'3 6.3
2017-Oct-14 23:00N 32°20' W 090°54'3 6.7
2017-Oct-14 22:30N 32°17' W 090°56'1 1.1
2017-Oct-14 22:00N 32°17' W 090°57'0 0.9
2017-Oct-14 21:30N 32°17' W 090°57'1 2.1
2017-Oct-14 21:00N 32°16' W 090°58'3 5.2
2017-Oct-14 20:30N 32°13' W 090°59'3 6.6
2017-Oct-14 20:01N 32°10' W 091°00'3 6.1
2017-Oct-14 19:30N 32°07' W 091°01'3 6.1
2017-Oct-14 19:00N 32°08' W 091°05'2 3.8
2017-Oct-14 18:30N 32°07' W 091°06'7 5.2
2017-Oct-14 17:15N 32°00' W 091°05'9 3.5
2017-Oct-14 14:35N 31°54' W 091°13'0 5.7
2017-Oct-14 14:30N 31°53' W 091°13'3 5.7
2017-Oct-14 13:57N 31°51' W 091°16'  
2017-Oct-10 04:16N 29°37' W 090°21'4 5.0
2017-Oct-10 03:22N 29°33' W 090°24'2 5.6
2017-Oct-10 02:56N 29°33' W 090°27'2 5.6
2017-Oct-10 02:30N 29°34' W 090°29'3 5.6
2017-Oct-10 02:00N 29°34' W 090°32'3 5.4
2017-Oct-10 01:30N 29°35' W 090°35'2 4.5
2017-Oct-10 01:00N 29°35' W 090°38'2 5.0
2017-Oct-10 00:30N 29°36' W 090°40'2 3.8
2017-Oct-10 00:00N 29°36' W 090°43'2 4.5
2017-Oct-09 23:30N 29°34' W 090°43'1 1.0
2017-Oct-09 23:00N 29°34' W 090°44'2 3.2
2017-Oct-09 22:30N 29°33' W 090°45'3 5.0
2017-Oct-09 22:00N 29°32' W 090°48'3 6.0
2017-Oct-09 21:29N 29°32' W 090°52'3 5.9
2017-Oct-09 21:00N 29°33' W 090°55'3 5.4
2017-Oct-09 20:27N 29°35' W 090°58'56 1.7
2017-Oct-08 11:31N 29°50' W 091°60'0 5.1
2017-Oct-08 11:30N 29°50' W 091°60'3 5.5
2017-Oct-08 10:59N 29°49' W 092°03'3 5.4
2017-Oct-08 10:30N 29°48' W 092°06'3 5.6
2017-Oct-08 10:00N 29°47' W 092°09'3 5.1
2017-Oct-08 09:30N 29°47' W 092°12'1 1.9
2017-Oct-08 09:00N 29°47' W 092°13'2 4.7
2017-Oct-08 08:30N 29°48' W 092°15'3 5.1
2017-Oct-08 08:00N 29°50' W 092°18'39 4.8
2017-Oct-07 23:55N 29°56' W 093°02'2 4.9
2017-Oct-07 23:30N 29°56' W 093°04'2 5.0
2017-Oct-07 23:00N 29°56' W 093°07'2 4.7
2017-Oct-07 22:30N 29°57' W 093°10'3 5.2
2017-Oct-07 22:00N 29°59' W 093°12'2 5.0
2017-Oct-07 21:30N 30°01' W 093°14'2 3.0
2017-Oct-07 21:00N 30°02' W 093°15'2 4.0
2017-Oct-07 20:30N 30°04' W 093°16'2 4.7
2017-Oct-07 20:00N 30°05' W 093°18'1 2.1
2017-Oct-07 19:30N 30°06' W 093°18'0 0.8
2017-Oct-07 19:00N 30°06' W 093°19'0 0.0
2017-Oct-07 18:30N 30°06' W 093°19'0 0.0
2017-Oct-07 18:00N 30°06' W 093°19'0 0.0
2017-Oct-07 17:30N 30°06' W 093°19'0 0.0
2017-Oct-07 17:00N 30°06' W 093°19'0 0.0
2017-Oct-07 16:30N 30°06' W 093°19'0 0.0
2017-Oct-07 16:00N 30°06' W 093°19'0 0.0
2017-Oct-07 15:30N 30°06' W 093°19'0 0.0
2017-Oct-07 15:00N 30°06' W 093°19'0 0.1
2017-Oct-07 14:30N 30°06' W 093°19'1 2.4
2017-Oct-07 14:00N 30°05' W 093°20'2 3.5
2017-Oct-07 13:30N 30°04' W 093°21'1 2.0
2017-Oct-07 13:00N 30°04' W 093°22'2 4.5
2017-Oct-07 12:30N 30°04' W 093°25'3 5.0
2017-Oct-07 12:00N 30°04' W 093°28'3 5.1
2017-Oct-07 11:30N 30°04' W 093°31'2 4.9
2017-Oct-07 11:00N 30°04' W 093°33'3 5.5
2017-Oct-07 10:29N 30°04' W 093°37'73 1.6
2017-Oct-05 13:56N 29°30' W 094°52'3 7.9
2017-Oct-05 13:30N 29°32' W 094°54'4 7.7
2017-Oct-05 13:00N 29°36' W 094°57'4 7.6
2017-Oct-05 12:30N 29°39' W 094°58'4 7.1
2017-Oct-05 11:59N 29°42' W 095°01'3 6.3
2017-Oct-05 11:30N 29°44' W 095°03'3 1.6
2017-Oct-05 09:36N 29°47' W 095°04'0 2.3
2017-Oct-05 09:27N 29°47' W 095°05'0 0.0
2017-Oct-05 08:56N 29°47' W 095°05'0 0.0
2017-Oct-05 08:26N 29°47' W 095°05'0 0.0
2017-Oct-05 07:49N 29°47' W 095°05'  
Track history (hours):
 
Tides and Currents Weather Stations Pressure Air Temp Water Temp Dewpoint Dewpoint Depression Visibility Wind Speed Wind Dir Waves Ship Positions

Callie M. Etheredge

Owner: Genesis Marine, LLC, Houston, TX. More information available from US FCC via Universal Licensing System.

Last reported at 2017-Oct-15 07:31 UTC. Time now 2017-Oct-19 23:35 UTC.
Position N 32°46' W 091°09'.

Length 24 m; draft 3.3 m.

Type: Ship (hazmat cat B). MMSI: 367705090.

Date/timePositionNaut miles runAvg speedWind from/ knotsBaromVisibWave heightAir tempDewpointWater temp
2017-Oct-15 07:31N 32°46' W 091°09'0 6.1
2017-Oct-15 07:30N 32°46' W 091°09'4 4.9
2017-Oct-15 06:37N 32°44' W 091°05'0 1.0
2017-Oct-15 06:29N 32°44' W 091°05'0 0.0
2017-Oct-15 06:00N 32°44' W 091°05'0 0.1
2017-Oct-15 05:27N 32°44' W 091°05'4 3.8
2017-Oct-15 04:21N 32°40' W 091°07'2 5.2
2017-Oct-15 03:59N 32°39' W 091°09'1 2.4
2017-Oct-15 03:31N 32°38' W 091°09'2 3.7
2017-Oct-15 03:00N 32°37' W 091°09'3 5.9
2017-Oct-15 02:30N 32°34' W 091°07'3 5.3
2017-Oct-15 01:59N 32°32' W 091°06'3 5.8
2017-Oct-15 01:30N 32°29' W 091°07'3 6.9
2017-Oct-15 01:00N 32°27' W 091°04'3 6.7
2017-Oct-15 00:30N 32°25' W 091°00'3 5.3
2017-Oct-15 00:00N 32°23' W 091°00'3 5.5
2017-Oct-14 23:30N 32°21' W 090°58'3 6.3
2017-Oct-14 23:00N 32°20' W 090°54'3 6.7
2017-Oct-14 22:30N 32°17' W 090°56'1 1.1
2017-Oct-14 22:00N 32°17' W 090°57'0 0.9
2017-Oct-14 21:30N 32°17' W 090°57'1 2.1
2017-Oct-14 21:00N 32°16' W 090°58'3 5.2
2017-Oct-14 20:30N 32°13' W 090°59'3 6.6
2017-Oct-14 20:01N 32°10' W 091°00'3 6.1
2017-Oct-14 19:30N 32°07' W 091°01'3 6.1
2017-Oct-14 19:00N 32°08' W 091°05'2 3.8
2017-Oct-14 18:30N 32°07' W 091°06'7 5.2
2017-Oct-14 17:15N 32°00' W 091°05'9 3.5
2017-Oct-14 14:35N 31°54' W 091°13'0 5.7
2017-Oct-14 14:30N 31°53' W 091°13'3 5.7
2017-Oct-14 13:57N 31°51' W 091°16'  
2017-Oct-10 04:16N 29°37' W 090°21'4 5.0
2017-Oct-10 03:22N 29°33' W 090°24'2 5.6
2017-Oct-10 02:56N 29°33' W 090°27'2 5.6
2017-Oct-10 02:30N 29°34' W 090°29'3 5.6
2017-Oct-10 02:00N 29°34' W 090°32'3 5.4
2017-Oct-10 01:30N 29°35' W 090°35'2 4.5
2017-Oct-10 01:00N 29°35' W 090°38'2 5.0
2017-Oct-10 00:30N 29°36' W 090°40'2 3.8
2017-Oct-10 00:00N 29°36' W 090°43'2 4.5
2017-Oct-09 23:30N 29°34' W 090°43'1 1.0
2017-Oct-09 23:00N 29°34' W 090°44'2 3.2
2017-Oct-09 22:30N 29°33' W 090°45'3 5.0
2017-Oct-09 22:00N 29°32' W 090°48'3 6.0
2017-Oct-09 21:29N 29°32' W 090°52'3 5.9
2017-Oct-09 21:00N 29°33' W 090°55'3 5.4
2017-Oct-09 20:27N 29°35' W 090°58'56 1.7
2017-Oct-08 11:31N 29°50' W 091°60'0 5.1
2017-Oct-08 11:30N 29°50' W 091°60'3 5.5
2017-Oct-08 10:59N 29°49' W 092°03'3 5.4
2017-Oct-08 10:30N 29°48' W 092°06'3 5.6
2017-Oct-08 10:00N 29°47' W 092°09'3 5.1
2017-Oct-08 09:30N 29°47' W 092°12'1 1.9
2017-Oct-08 09:00N 29°47' W 092°13'2 4.7
2017-Oct-08 08:30N 29°48' W 092°15'3 5.1
2017-Oct-08 08:00N 29°50' W 092°18'39 4.8
2017-Oct-07 23:55N 29°56' W 093°02'2 4.9
2017-Oct-07 23:30N 29°56' W 093°04'2 5.0
2017-Oct-07 23:00N 29°56' W 093°07'2 4.7
2017-Oct-07 22:30N 29°57' W 093°10'3 5.2
2017-Oct-07 22:00N 29°59' W 093°12'2 5.0
2017-Oct-07 21:30N 30°01' W 093°14'2 3.0
2017-Oct-07 21:00N 30°02' W 093°15'2 4.0
2017-Oct-07 20:30N 30°04' W 093°16'2 4.7
2017-Oct-07 20:00N 30°05' W 093°18'1 2.1
2017-Oct-07 19:30N 30°06' W 093°18'0 0.8
2017-Oct-07 19:00N 30°06' W 093°19'0 0.0
2017-Oct-07 18:30N 30°06' W 093°19'0 0.0
2017-Oct-07 18:00N 30°06' W 093°19'0 0.0
2017-Oct-07 17:30N 30°06' W 093°19'0 0.0
2017-Oct-07 17:00N 30°06' W 093°19'0 0.0
2017-Oct-07 16:30N 30°06' W 093°19'0 0.0
2017-Oct-07 16:00N 30°06' W 093°19'0 0.0
2017-Oct-07 15:30N 30°06' W 093°19'0 0.0
2017-Oct-07 15:00N 30°06' W 093°19'0 0.1
2017-Oct-07 14:30N 30°06' W 093°19'1 2.4
2017-Oct-07 14:00N 30°05' W 093°20'2 3.5
2017-Oct-07 13:30N 30°04' W 093°21'1 2.0
2017-Oct-07 13:00N 30°04' W 093°22'2 4.5
2017-Oct-07 12:30N 30°04' W 093°25'3 5.0
2017-Oct-07 12:00N 30°04' W 093°28'3 5.1
2017-Oct-07 11:30N 30°04' W 093°31'2 4.9
2017-Oct-07 11:00N 30°04' W 093°33'3 5.5
2017-Oct-07 10:29N 30°04' W 093°37'73 1.6
2017-Oct-05 13:56N 29°30' W 094°52'3 7.9
2017-Oct-05 13:30N 29°32' W 094°54'4 7.7
2017-Oct-05 13:00N 29°36' W 094°57'4 7.6
2017-Oct-05 12:30N 29°39' W 094°58'4 7.1
2017-Oct-05 11:59N 29°42' W 095°01'3 6.3
2017-Oct-05 11:30N 29°44' W 095°03'3 1.6
2017-Oct-05 09:36N 29°47' W 095°04'0 2.3
2017-Oct-05 09:27N 29°47' W 095°05'0 0.0
2017-Oct-05 08:56N 29°47' W 095°05'0 0.0
2017-Oct-05 08:26N 29°47' W 095°05'0 0.0
2017-Oct-05 07:49N 29°47' W 095°05'  

Dump ship's entire track history